createdAt,value
2023-01-17T00:01:57.958Z,5.00
2023-01-17T00:04:24.792Z,5.08
2023-01-17T00:06:52.968Z,4.70
2023-01-17T00:09:19.711Z,5.18
2023-01-17T00:11:46.525Z,5.44
2023-01-17T00:14:13.362Z,5.15
2023-01-17T00:16:40.089Z,4.77
2023-01-17T00:19:06.904Z,4.82
2023-01-17T00:21:33.700Z,4.77
2023-01-17T00:24:01.864Z,5.08
2023-01-17T00:26:31.157Z,5.56
2023-01-17T00:28:57.990Z,5.37
2023-01-17T00:31:24.782Z,5.26
2023-01-17T00:33:51.657Z,4.73
2023-01-17T00:36:18.406Z,4.62
2023-01-17T00:38:45.247Z,4.24
2023-01-17T00:41:15.618Z,4.29
2023-01-17T00:43:42.405Z,4.60
2023-01-17T00:46:09.173Z,4.80
2023-01-17T00:48:37.041Z,5.22
2023-01-17T00:51:04.079Z,4.94
2023-01-17T00:53:30.844Z,5.31
2023-01-17T00:56:00.890Z,5.40
2023-01-17T00:58:29.120Z,4.53
2023-01-17T01:00:56.000Z,4.13
2023-01-17T01:03:22.886Z,4.28
2023-01-17T01:05:49.708Z,4.43
2023-01-17T01:08:19.280Z,4.02
2023-01-17T01:10:47.697Z,3.97
2023-01-17T01:13:14.808Z,4.23
2023-01-17T01:15:42.948Z,4.35
2023-01-17T01:18:11.956Z,4.73
2023-01-17T01:20:38.727Z,4.26
2023-01-17T01:23:05.812Z,4.50
2023-01-17T01:25:32.697Z,5.26
2023-01-17T01:28:03.865Z,4.83
2023-01-17T01:30:30.728Z,4.51
2023-01-17T01:32:58.933Z,4.14
2023-01-17T01:35:25.792Z,3.55
2023-01-17T01:37:52.584Z,3.64
2023-01-17T01:40:20.119Z,3.15
2023-01-17T01:42:51.765Z,3.29
2023-01-17T01:45:20.820Z,3.00
2023-01-17T01:47:50.063Z,2.59
2023-01-17T01:50:21.275Z,2.17
2023-01-17T01:52:55.947Z,2.08
2023-01-17T01:55:27.398Z,1.76
2023-01-17T01:57:59.762Z,1.85
2023-01-17T02:00:30.701Z,1.39
2023-01-17T02:03:00.947Z,1.02
2023-01-17T02:05:29.439Z,0.85
2023-01-17T02:08:01.479Z,0.92
2023-01-17T02:10:28.211Z,0.82
2023-01-17T02:12:56.138Z,0.93
2023-01-17T02:15:30.298Z,0.92
2023-01-17T02:20:57.408Z,0.74
2023-01-17T02:24:00.336Z,0.77
2023-01-17T02:26:52.566Z,0.59
2023-01-17T02:30:04.839Z,0.60
2023-01-17T02:32:51.115Z,0.68
2023-01-17T02:35:26.927Z,0.74
2023-01-17T02:38:01.895Z,0.61
2023-01-17T02:40:34.390Z,0.43
2023-01-17T02:43:07.191Z,0.45
2023-01-17T02:45:34.291Z,1.00
2023-01-17T02:48:02.831Z,1.22
2023-01-17T02:50:44.353Z,1.02
2023-01-17T02:53:31.499Z,0.98
2023-01-17T02:56:06.002Z,1.36
2023-01-17T02:58:45.789Z,1.12
2023-01-17T03:01:23.361Z,1.92
2023-01-17T03:03:56.748Z,2.55
2023-01-17T03:06:31.115Z,2.43
2023-01-17T03:08:57.914Z,2.63
2023-01-17T03:11:24.797Z,2.64
2023-01-17T03:13:55.173Z,2.81
2023-01-17T03:16:24.032Z,2.90
2023-01-17T03:18:52.323Z,3.02
2023-01-17T03:21:19.130Z,2.72
2023-01-17T03:23:45.886Z,2.67
2023-01-17T03:26:12.713Z,2.43
2023-01-17T03:28:39.651Z,1.96
2023-01-17T03:31:06.641Z,1.89
2023-01-17T03:33:33.804Z,1.48
2023-01-17T03:36:02.131Z,1.24
2023-01-17T03:38:29.381Z,1.41
2023-01-17T03:40:56.154Z,1.18
2023-01-17T03:43:22.997Z,0.83
2023-01-17T03:45:50.194Z,0.94
2023-01-17T03:48:16.977Z,0.83
2023-01-17T03:50:43.752Z,0.68
2023-01-17T03:53:11.931Z,0.60
2023-01-17T03:55:38.788Z,0.46
2023-01-17T03:58:05.616Z,0.49
2023-01-17T04:00:32.397Z,0.47
2023-01-17T04:02:59.374Z,1.32
2023-01-17T04:05:26.186Z,1.13
2023-01-17T04:07:53.031Z,1.05
2023-01-17T04:10:21.232Z,0.93
2023-01-17T04:12:47.995Z,1.02
2023-01-17T04:15:14.904Z,0.84
2023-01-17T04:17:41.739Z,0.83
2023-01-17T04:20:16.356Z,0.82
2023-01-17T04:22:43.172Z,1.03
2023-01-17T04:25:10.106Z,1.60
2023-01-17T04:27:38.552Z,1.92
2023-01-17T04:30:06.306Z,2.34
2023-01-17T04:32:33.083Z,2.54
2023-01-17T04:34:59.888Z,2.28
2023-01-17T04:37:26.669Z,2.40
2023-01-17T04:39:53.533Z,2.10
2023-01-17T04:42:21.192Z,2.01
2023-01-17T04:44:49.417Z,1.97
2023-01-17T04:47:16.186Z,1.78
2023-01-17T04:49:44.205Z,1.57
2023-01-17T04:52:11.039Z,1.45
2023-01-17T04:54:37.836Z,1.67
2023-01-17T04:57:04.553Z,1.74
2023-01-17T04:59:31.328Z,2.00
2023-01-17T05:01:59.637Z,1.83
2023-01-17T05:04:26.378Z,2.02
2023-01-17T05:06:53.229Z,1.90
2023-01-17T05:09:20.028Z,1.73
2023-01-17T05:11:46.830Z,1.30
2023-01-17T05:14:13.735Z,1.17
2023-01-17T05:16:40.543Z,0.98
2023-01-17T05:19:08.699Z,0.80
2023-01-17T05:21:35.563Z,0.93
2023-01-17T05:24:02.376Z,0.99
2023-01-17T05:26:29.123Z,0.72
2023-01-17T05:28:55.872Z,0.52
2023-01-17T05:31:22.793Z,0.51
2023-01-17T05:33:49.597Z,0.51
2023-01-17T05:36:18.901Z,0.50
2023-01-17T05:38:47.080Z,0.57
2023-01-17T05:41:13.929Z,0.58
2023-01-17T05:43:40.794Z,0.56
2023-01-17T05:46:07.660Z,1.05
2023-01-17T05:48:34.532Z,1.92
2023-01-17T05:51:01.384Z,2.38
2023-01-17T05:53:29.521Z,2.03
2023-01-17T05:55:56.305Z,2.02
2023-01-17T05:58:23.127Z,1.76
2023-01-17T06:00:50.048Z,1.44
2023-01-17T06:03:17.288Z,1.30
2023-01-17T06:05:44.193Z,1.38
2023-01-17T06:08:11.094Z,1.16
2023-01-17T06:10:39.676Z,1.16
2023-01-17T06:13:09.767Z,1.19
2023-01-17T06:15:37.529Z,1.03
2023-01-17T06:18:05.460Z,0.87
2023-01-17T06:20:32.224Z,1.41
2023-01-17T06:23:00.764Z,2.43
2023-01-17T06:25:27.576Z,3.28
2023-01-17T06:27:56.164Z,3.82
2023-01-17T06:30:23.135Z,4.57
2023-01-17T06:32:52.711Z,4.59
2023-01-17T06:35:19.444Z,4.66
2023-01-17T06:37:46.256Z,5.32
2023-01-17T06:40:13.220Z,5.98
2023-01-17T06:42:40.020Z,5.50
2023-01-17T06:45:09.451Z,5.20
2023-01-17T06:47:38.104Z,4.89
2023-01-17T06:50:05.700Z,4.82
2023-01-17T06:52:32.641Z,4.99
2023-01-17T06:54:59.472Z,4.54
2023-01-17T06:57:26.295Z,4.40
2023-01-17T06:59:53.424Z,3.14
2023-01-17T07:02:21.961Z,2.78
2023-01-17T07:04:49.325Z,2.15
2023-01-17T07:07:16.687Z,2.07
2023-01-17T07:09:43.519Z,1.74
2023-01-17T07:12:10.384Z,1.58
2023-01-17T07:14:38.097Z,2.40
2023-01-17T07:17:05.469Z,2.87
2023-01-17T07:19:33.760Z,3.20
2023-01-17T07:22:00.761Z,3.39
2023-01-17T07:24:28.472Z,3.26
2023-01-17T07:26:55.939Z,3.21
2023-01-17T07:29:22.982Z,3.44
2023-01-17T07:31:50.612Z,3.57
2023-01-17T07:34:17.511Z,3.96
2023-01-17T07:36:45.836Z,3.53
2023-01-17T07:39:12.728Z,3.22
2023-01-17T07:41:39.457Z,3.39
2023-01-17T07:44:06.215Z,3.37
2023-01-17T07:46:33.070Z,3.34
2023-01-17T07:49:00.004Z,3.02
2023-01-17T07:51:26.954Z,2.93
2023-01-17T07:53:55.244Z,3.31
2023-01-17T07:56:22.007Z,3.35
2023-01-17T07:58:48.901Z,3.09
2023-01-17T08:01:16.270Z,3.00
2023-01-17T08:03:43.182Z,2.55
2023-01-17T08:06:18.010Z,2.36
2023-01-17T08:08:45.205Z,2.17
2023-01-17T08:11:13.421Z,2.05
2023-01-17T08:13:40.319Z,2.48
2023-01-17T08:16:07.991Z,3.08
2023-01-17T08:18:35.399Z,3.13
2023-01-17T08:21:02.186Z,2.74
2023-01-17T08:23:29.389Z,2.70
2023-01-17T08:26:00.387Z,3.61
2023-01-17T08:28:28.696Z,3.45
2023-01-17T08:30:55.463Z,3.57
2023-01-17T08:33:22.229Z,3.98
2023-01-17T08:35:52.610Z,3.74
2023-01-17T08:38:19.401Z,3.05
2023-01-17T08:40:46.207Z,2.80
2023-01-17T08:43:12.996Z,2.55
2023-01-17T08:45:41.160Z,2.50
2023-01-17T08:48:08.121Z,2.51
2023-01-17T08:50:36.087Z,2.73
2023-01-17T08:53:02.873Z,2.60
2023-01-17T08:55:29.640Z,2.97
2023-01-17T08:57:57.289Z,2.83
2023-01-17T09:00:24.633Z,2.57
2023-01-17T09:02:53.226Z,2.61
2023-01-17T09:05:20.196Z,2.92
2023-01-17T09:07:46.959Z,2.56
2023-01-17T09:10:13.891Z,2.44
2023-01-17T09:12:40.747Z,2.48
2023-01-17T09:15:07.967Z,2.64
2023-01-17T09:17:34.752Z,3.04
2023-01-17T09:20:03.130Z,4.01
2023-01-17T09:22:30.095Z,3.90
2023-01-17T09:24:56.855Z,3.94
2023-01-17T09:27:23.604Z,3.94
2023-01-17T09:29:50.394Z,4.03
2023-01-17T09:32:17.220Z,4.65
2023-01-17T09:34:44.420Z,4.19
2023-01-17T09:37:12.597Z,4.35
2023-01-17T09:39:39.357Z,4.99
2023-01-17T09:42:18.543Z,5.68
2023-01-17T09:44:48.219Z,5.95
2023-01-17T09:47:19.979Z,5.64
2023-01-17T09:49:47.594Z,5.07
2023-01-17T09:52:21.170Z,4.52
2023-01-17T09:54:49.476Z,4.38
2023-01-17T09:57:33.133Z,4.19
2023-01-17T10:00:09.547Z,4.15
2023-01-17T10:02:50.906Z,3.76
2023-01-17T10:05:32.715Z,3.77
2023-01-17T10:08:13.080Z,3.77
2023-01-17T10:10:42.549Z,3.54
2023-01-17T10:13:26.942Z,4.04
2023-01-17T10:19:04.407Z,3.98
2023-01-17T10:21:48.267Z,4.02
2023-01-17T10:24:35.797Z,4.68
2023-01-17T10:27:09.945Z,5.18
2023-01-17T10:29:37.553Z,5.85
2023-01-17T10:32:04.963Z,5.43
2023-01-17T10:34:36.931Z,5.67
2023-01-17T10:37:15.788Z,5.47
2023-01-17T10:39:48.311Z,5.74
2023-01-17T10:42:21.783Z,7.10
2023-01-17T10:44:52.766Z,15.05
2023-01-17T10:47:21.554Z,10.46
2023-01-17T10:49:50.551Z,15.21
2023-01-17T10:52:30.136Z,11.36
2023-01-17T10:55:18.126Z,13.83
2023-01-17T10:57:48.092Z,10.08
2023-01-17T11:00:39.157Z,8.76
2023-01-17T11:03:06.803Z,7.66
2023-01-17T11:05:34.379Z,7.10
2023-01-17T11:08:03.713Z,7.05
2023-01-17T11:10:42.082Z,6.98
2023-01-17T11:13:23.820Z,6.40
2023-01-17T11:15:53.167Z,6.10
2023-01-17T11:18:21.957Z,5.84
2023-01-17T11:20:49.766Z,6.16
2023-01-17T11:23:20.065Z,5.05
2023-01-17T11:25:54.437Z,4.34
2023-01-17T11:28:24.228Z,4.03
2023-01-17T11:30:53.091Z,4.74
2023-01-17T11:33:35.184Z,5.27
2023-01-17T11:36:02.533Z,6.73
2023-01-17T11:38:29.326Z,6.69
2023-01-17T11:41:09.597Z,7.47
2023-01-17T11:43:50.791Z,6.60
2023-01-17T11:46:18.962Z,7.15
2023-01-17T11:48:49.571Z,7.69
2023-01-17T11:51:25.337Z,7.11
2023-01-17T11:53:54.879Z,6.06
2023-01-17T11:56:31.109Z,5.82
2023-01-17T11:59:24.043Z,5.26
2023-01-17T12:02:17.162Z,5.11
2023-01-17T12:04:47.434Z,3.81
2023-01-17T12:07:24.243Z,3.52
2023-01-17T12:10:01.158Z,3.96
2023-01-17T12:12:42.344Z,3.47
2023-01-17T12:15:30.867Z,3.22
2023-01-17T12:18:14.712Z,3.51
2023-01-17T12:20:50.561Z,2.96
2023-01-17T12:23:35.543Z,3.93
2023-01-17T12:26:19.917Z,4.76
2023-01-17T12:29:04.081Z,4.81
2023-01-17T12:31:35.055Z,4.53
2023-01-17T12:34:18.983Z,4.27
2023-01-17T12:36:50.666Z,4.47
2023-01-17T12:39:21.876Z,5.14
2023-01-17T12:41:57.705Z,6.24
2023-01-17T12:44:47.446Z,7.38
2023-01-17T12:47:15.922Z,7.39
2023-01-17T12:49:49.067Z,7.01
2023-01-17T12:52:24.550Z,5.55
2023-01-17T12:55:00.446Z,7.33
2023-01-17T12:57:33.782Z,7.35
2023-01-17T13:00:06.996Z,6.98
2023-01-17T13:02:41.613Z,6.70
2023-01-17T13:05:14.181Z,6.20
2023-01-17T13:07:49.846Z,5.65
2023-01-17T13:10:32.013Z,4.10
2023-01-17T13:13:04.844Z,3.63
2023-01-17T13:15:39.027Z,3.38
2023-01-17T13:18:10.677Z,3.90
2023-01-17T13:20:55.944Z,3.81
2023-01-17T13:23:29.866Z,3.39
2023-01-17T13:25:59.011Z,3.89
2023-01-17T13:28:36.198Z,4.49
2023-01-17T13:31:32.145Z,5.85
2023-01-17T13:34:22.283Z,6.61
2023-01-17T13:37:04.928Z,6.74
2023-01-17T13:40:05.935Z,6.29
2023-01-17T13:42:43.035Z,5.17
2023-01-17T13:45:19.785Z,4.25
2023-01-17T13:47:48.222Z,3.31
2023-01-17T13:50:47.601Z,2.65
2023-01-17T13:53:46.033Z,2.51
2023-01-17T13:56:15.883Z,2.55
2023-01-17T13:58:58.295Z,2.67
2023-01-17T14:01:52.196Z,2.84
2023-01-17T14:07:19.556Z,5.20
2023-01-17T14:09:50.325Z,7.49
2023-01-17T14:12:27.717Z,7.03
2023-01-17T14:14:56.773Z,6.44
2023-01-17T14:17:58.291Z,5.60
2023-01-17T14:21:09.785Z,4.24
2023-01-17T14:23:54.792Z,3.70
2023-01-17T14:26:34.989Z,3.88
2023-01-17T14:29:35.184Z,7.65
2023-01-17T14:32:05.480Z,9.37
2023-01-17T14:34:32.723Z,9.64
2023-01-17T14:37:16.083Z,8.52
2023-01-17T14:39:44.705Z,9.19
2023-01-17T14:42:15.504Z,7.29
2023-01-17T14:44:46.443Z,6.24
2023-01-17T14:47:14.842Z,5.41
2023-01-17T14:49:41.864Z,4.39
2023-01-17T14:52:16.146Z,4.30
2023-01-17T14:54:50.036Z,3.50
2023-01-17T14:57:26.872Z,3.09
2023-01-17T15:00:10.057Z,3.03
2023-01-17T15:02:42.302Z,2.94
2023-01-17T15:05:14.327Z,2.62
2023-01-17T15:07:43.679Z,2.35
2023-01-17T15:10:13.849Z,2.23
2023-01-17T15:12:40.721Z,2.34
2023-01-17T15:15:29.552Z,2.20
2023-01-17T15:18:09.283Z,2.04
2023-01-17T15:20:37.804Z,3.13
2023-01-17T15:23:06.318Z,3.99
2023-01-17T15:25:33.960Z,5.06
2023-01-17T15:28:01.455Z,6.05
2023-01-17T15:30:28.373Z,6.90
2023-01-17T15:32:55.173Z,6.58
2023-01-17T15:35:22.284Z,8.33
2023-01-17T15:37:52.892Z,8.34
2023-01-17T15:40:23.581Z,8.67
2023-01-17T15:42:53.564Z,7.58
2023-01-17T15:45:28.692Z,6.18
2023-01-17T15:47:55.808Z,4.71
2023-01-17T15:50:27.871Z,3.76
2023-01-17T15:52:57.227Z,2.89
2023-01-17T15:55:30.916Z,2.23
2023-01-17T15:57:58.361Z,1.96
2023-01-17T16:00:28.286Z,1.86
2023-01-17T16:02:55.247Z,2.12
2023-01-17T16:05:34.666Z,2.44
2023-01-17T16:08:25.713Z,3.32
2023-01-17T16:10:55.681Z,3.93
2023-01-17T16:13:22.456Z,3.15
2023-01-17T16:15:49.559Z,2.63
2023-01-17T16:18:20.689Z,2.18
2023-01-17T16:20:51.547Z,2.08
2023-01-17T16:23:18.340Z,2.48
2023-01-17T16:25:45.061Z,2.61
2023-01-17T16:28:13.234Z,2.80
2023-01-17T16:30:40.076Z,3.40
2023-01-17T16:33:10.085Z,3.88
2023-01-17T16:35:37.168Z,3.62
2023-01-17T16:38:06.556Z,3.38
2023-01-17T16:40:38.868Z,3.59
2023-01-17T16:43:05.827Z,2.85
2023-01-17T16:45:39.706Z,2.63
2023-01-17T16:48:06.855Z,2.25
2023-01-17T16:50:33.672Z,2.06
2023-01-17T16:53:00.450Z,2.14
2023-01-17T16:55:27.168Z,1.85
2023-01-17T16:57:57.013Z,1.87
2023-01-17T17:00:24.411Z,2.31
2023-01-17T17:02:53.452Z,2.14
2023-01-17T17:05:20.319Z,2.51
2023-01-17T17:07:47.126Z,2.05
2023-01-17T17:10:16.522Z,1.92
2023-01-17T17:12:43.346Z,2.23
2023-01-17T17:15:11.672Z,2.21
2023-01-17T17:17:40.678Z,1.91
2023-01-17T17:20:11.107Z,2.15
2023-01-17T17:22:37.924Z,2.00
2023-01-17T17:25:05.384Z,2.35
2023-01-17T17:27:32.852Z,2.28
2023-01-17T17:29:59.639Z,2.06
2023-01-17T17:32:26.385Z,2.09
2023-01-17T17:34:53.136Z,2.07
2023-01-17T17:37:21.253Z,3.19
2023-01-17T17:39:48.073Z,2.82
2023-01-17T17:42:14.958Z,2.21
2023-01-17T17:44:41.789Z,2.24
2023-01-17T17:47:09.339Z,2.57
2023-01-17T17:49:36.223Z,2.66
2023-01-17T17:52:04.272Z,2.28
2023-01-17T17:54:33.395Z,1.84
2023-01-17T17:57:00.227Z,1.98
2023-01-17T17:59:27.287Z,1.83
2023-01-17T18:01:55.494Z,1.88
2023-01-17T18:04:22.912Z,1.39
2023-01-17T18:06:49.856Z,1.61
2023-01-17T18:09:16.811Z,1.41
2023-01-17T18:11:45.074Z,1.50
2023-01-17T18:14:14.012Z,1.31
2023-01-17T18:16:43.411Z,1.50
2023-01-17T18:19:14.110Z,1.62
2023-01-17T18:21:41.019Z,1.80
2023-01-17T18:24:09.597Z,1.93
2023-01-17T18:26:39.007Z,1.79
2023-01-17T18:29:10.078Z,1.57
2023-01-17T18:31:37.941Z,2.29
2023-01-17T18:34:06.631Z,2.69
2023-01-17T18:36:33.926Z,3.07
2023-01-17T18:39:01.760Z,2.69
2023-01-17T18:41:30.699Z,2.60
2023-01-17T18:43:58.104Z,3.06
2023-01-17T18:46:27.030Z,3.38
2023-01-17T18:48:56.136Z,3.06
2023-01-17T18:51:23.266Z,2.96
2023-01-17T18:53:50.407Z,2.84
2023-01-17T18:56:19.895Z,2.88
2023-01-17T18:58:47.931Z,3.70
2023-01-17T19:01:16.270Z,3.34
2023-01-17T19:03:46.191Z,4.40
2023-01-17T19:06:14.829Z,3.98
2023-01-17T19:08:42.893Z,3.55
2023-01-17T19:11:10.817Z,3.11
2023-01-17T19:13:39.005Z,3.18
2023-01-17T19:16:08.985Z,3.44
2023-01-17T19:18:36.049Z,2.94
2023-01-17T19:21:08.792Z,2.84
2023-01-17T19:23:36.537Z,3.09
2023-01-17T19:26:04.098Z,3.88
2023-01-17T19:28:31.218Z,3.66
2023-01-17T19:31:02.374Z,3.15
2023-01-17T19:33:29.182Z,3.06
2023-01-17T19:35:58.712Z,2.82
2023-01-17T19:38:26.996Z,2.85
2023-01-17T19:40:53.824Z,3.00
2023-01-17T19:43:20.601Z,3.15
2023-01-17T19:45:56.588Z,3.16
2023-01-17T19:48:24.872Z,3.21
2023-01-17T19:50:52.585Z,3.19
2023-01-17T19:53:20.101Z,2.92
2023-01-17T19:55:48.314Z,2.91
2023-01-17T19:58:15.464Z,3.13
2023-01-17T20:00:46.487Z,3.20
2023-01-17T20:03:13.823Z,3.15
2023-01-17T20:05:40.675Z,2.99
2023-01-17T20:08:07.472Z,3.47
2023-01-17T20:10:35.383Z,3.32
2023-01-17T20:13:03.512Z,3.32
2023-01-17T20:15:30.818Z,3.10
2023-01-17T20:17:57.906Z,3.09
2023-01-17T20:20:24.925Z,2.84
2023-01-17T20:22:51.903Z,2.22
2023-01-17T20:25:18.698Z,2.17
2023-01-17T20:27:45.480Z,2.26
2023-01-17T20:30:20.284Z,2.36
2023-01-17T20:32:47.355Z,2.45
2023-01-17T20:35:14.271Z,2.72
2023-01-17T20:37:41.037Z,2.72
2023-01-17T20:40:08.859Z,2.74
2023-01-17T20:42:36.234Z,2.93
2023-01-17T20:45:04.122Z,3.37
2023-01-17T20:47:32.272Z,3.31
2023-01-17T20:49:59.077Z,2.65
2023-01-17T20:52:25.946Z,2.69
2023-01-17T20:54:52.806Z,2.79
2023-01-17T20:57:19.591Z,3.41
2023-01-17T20:59:46.455Z,3.46
2023-01-17T21:02:13.367Z,3.39
2023-01-17T21:04:41.742Z,2.90
2023-01-17T21:07:08.701Z,2.61
2023-01-17T21:09:35.579Z,2.81
2023-01-17T21:12:02.329Z,3.01
2023-01-17T21:14:29.185Z,3.72
2023-01-17T21:16:56.245Z,3.70
2023-01-17T21:19:23.889Z,4.32
2023-01-17T21:21:52.035Z,4.14
2023-01-17T21:24:18.899Z,3.79
2023-01-17T21:26:46.304Z,3.80
2023-01-17T21:29:13.623Z,3.88
2023-01-17T21:31:40.418Z,3.57
2023-01-17T21:34:09.329Z,3.74
2023-01-17T21:36:38.251Z,3.54
2023-01-17T21:39:10.161Z,3.45
2023-01-17T21:41:38.847Z,3.17
2023-01-17T21:44:07.058Z,3.57
2023-01-17T21:46:36.711Z,4.03
2023-01-17T21:49:03.595Z,3.96
2023-01-17T21:51:30.680Z,3.82
2023-01-17T21:53:57.851Z,3.32
2023-01-17T21:56:26.051Z,3.63
2023-01-17T21:58:55.240Z,3.08
2023-01-17T22:01:23.372Z,2.76
2023-01-17T22:03:52.216Z,3.03
2023-01-17T22:06:20.700Z,2.96
2023-01-17T22:08:47.845Z,2.91
2023-01-17T22:11:16.810Z,2.56
2023-01-17T22:13:46.714Z,2.59
2023-01-17T22:16:15.404Z,2.71
2023-01-17T22:18:43.409Z,2.80
2023-01-17T22:21:12.825Z,2.86
2023-01-17T22:23:44.586Z,2.26
2023-01-17T22:26:11.733Z,2.14
2023-01-17T22:28:39.530Z,2.01
2023-01-17T22:31:09.650Z,2.06
2023-01-17T22:33:37.300Z,1.77
2023-01-17T22:36:04.844Z,1.96
2023-01-17T22:38:31.750Z,1.89
2023-01-17T22:41:03.630Z,1.71
2023-01-17T22:43:30.436Z,1.75
2023-01-17T22:45:59.124Z,1.72
2023-01-17T22:48:27.264Z,2.02
2023-01-17T22:50:56.961Z,1.92
2023-01-17T22:53:24.132Z,1.76
2023-01-17T22:55:58.755Z,1.67
2023-01-17T22:58:25.542Z,1.70
2023-01-17T23:00:52.273Z,1.74
2023-01-17T23:03:19.544Z,1.34
2023-01-17T23:05:48.047Z,1.47
2023-01-17T23:08:14.871Z,1.64
2023-01-17T23:10:41.915Z,1.83
2023-01-17T23:13:09.175Z,2.41
2023-01-17T23:15:37.776Z,2.84
2023-01-17T23:18:04.717Z,2.89
2023-01-17T23:20:31.499Z,2.89
2023-01-17T23:22:59.971Z,2.82
2023-01-17T23:25:26.968Z,2.70
2023-01-17T23:27:53.690Z,2.49
2023-01-17T23:30:23.508Z,2.39
2023-01-17T23:32:52.147Z,2.15
2023-01-17T23:35:22.150Z,2.06
2023-01-17T23:37:48.961Z,2.16
2023-01-17T23:40:18.250Z,2.09
2023-01-17T23:42:45.063Z,2.17
2023-01-17T23:45:12.300Z,2.03
2023-01-17T23:47:39.081Z,1.86
2023-01-17T23:50:06.855Z,1.72
2023-01-17T23:52:33.670Z,2.05
2023-01-17T23:55:00.416Z,1.85
2023-01-17T23:57:28.637Z,1.74
2023-01-17T23:59:55.447Z,1.78
